Time;durP1;ratioP1;P1;durP2;ratioP2;P2;SDS_P1;SDS_P2;PMS_P1;PMS_P2;Temp;Humidity;BMP_temperature;BMP_pressure;BME280_temperature;BME280_humidity;BME280_pressure;Samples;Min_cycle;Max_cycle;Signal;HPM_P1;HPM_P2
2021/12/29 00:01:47;;;;;;;;;9.33;7.33;;;;;-147.17;100.00;50033.00;4951307;28;52647;-56
2021/12/29 00:04:13;;;;;;;;;5.67;4.33;;;;;-147.17;100.00;50034.97;4952558;28;51261;-56
2021/12/29 00:06:39;;;;;;;;;4.33;3.33;;;;;-147.17;100.00;50054.66;4951568;28;51307;-54
2021/12/29 00:09:04;;;;;;;;;6.67;5.00;;;;;-147.17;100.00;50054.66;4954305;28;51121;-55
2021/12/29 00:11:30;;;;;;;;;5.00;5.00;;;;;-147.17;100.00;50074.34;4950863;28;51465;-55
2021/12/29 00:13:56;;;;;;;;;7.00;6.67;;;;;-147.17;100.00;50042.84;4955096;28;52052;-56
2021/12/29 00:16:21;;;;;;;;;4.33;3.33;;;;;-147.17;100.00;50048.75;4952622;28;51274;-55
2021/12/29 00:18:47;;;;;;;;;6.00;5.00;;;;;-147.17;100.00;50013.31;4954036;28;51213;-55
2021/12/29 00:21:14;;;;;;;;;5.00;5.00;;;;;-147.17;100.00;50052.69;4952253;28;53131;-55
2021/12/29 00:23:40;;;;;;;;;5.67;4.00;;;;;-147.17;100.00;49997.56;4953225;28;51689;-56
2021/12/29 00:26:05;;;;;;;;;6.00;5.00;;;;;-147.17;100.00;50054.66;4961490;28;51251;-54
2021/12/29 00:28:30;;;;;;;;;8.00;6.00;;;;;-147.17;100.00;50066.47;4951978;28;51677;-55
2021/12/29 00:30:56;;;;;;;;;4.67;4.67;;;;;-147.17;100.00;50033.00;4955699;28;51356;-55
2021/12/29 00:33:21;;;;;;;;;5.00;5.00;;;;;-147.17;100.00;50062.53;4953865;28;53042;-55
2021/12/29 00:35:47;;;;;;;;;5.00;4.67;;;;;-147.17;100.00;50029.06;4952958;28;51222;-55
2021/12/29 00:38:13;;;;;;;;;5.00;4.00;;;;;-147.17;100.00;50056.63;4951206;28;51305;-55
2021/12/29 00:40:40;;;;;;;;;1.33;1.00;;;;;-147.17;100.00;50048.75;4954094;28;51101;-56
2021/12/29 00:43:07;;;;;;;;;5.00;4.00;;;;;-147.17;100.00;50036.94;4954264;28;51455;-56
2021/12/29 00:45:36;;;;;;;;;7.00;4.33;;;;;-147.17;100.00;50009.38;4953580;28;51354;-56
2021/12/29 00:48:03;;;;;;;;;6.00;5.00;;;;;-147.17;100.00;50017.25;4951728;28;51589;-56
2021/12/29 00:50:28;;;;;;;;;7.33;5.67;;;;;-147.17;100.00;50009.38;4964565;28;51689;-56
2021/12/29 00:52:54;;;;;;;;;7.67;3.33;;;;;-147.17;100.00;50005.44;4953030;28;53092;-54
2021/12/29 00:55:19;;;;;;;;;6.33;4.00;;;;;-147.17;100.00;50048.75;4953224;28;51181;-54
2021/12/29 00:57:45;;;;;;;;;6.67;6.00;;;;;-147.17;100.00;50033.00;4953086;28;51178;-55
2021/12/29 01:00:16;;;;;;;;;7.33;6.67;;;;;-147.17;100.00;50001.50;4951645;28;51150;-55
2021/12/29 01:02:43;;;;;;;;;6.00;5.00;;;;;-147.17;100.00;49989.69;4953095;28;51949;-55
2021/12/29 01:05:10;;;;;;;;;5.00;4.33;;;;;-147.17;100.00;50007.41;4957068;28;51424;-56
2021/12/29 01:07:36;;;;;;;;;5.00;4.00;;;;;-147.17;100.00;50040.88;4950416;28;51561;-54
2021/12/29 01:10:04;;;;;;;;;5.00;5.00;;;;;-147.17;100.00;49993.63;4949751;28;51315;-56
2021/12/29 01:12:30;;;;;;;;;6.33;4.33;;;;;-147.17;100.00;50017.25;4964099;28;52557;-54
2021/12/29 01:14:56;;;;;;;;;4.00;3.00;;;;;-147.17;100.00;49981.81;4952010;28;53456;-54
2021/12/29 01:17:24;;;;;;;;;7.67;5.33;;;;;-147.17;100.00;50003.47;4951108;28;53513;-54
2021/12/29 01:19:53;;;;;;;;;5.33;5.33;;;;;-147.17;100.00;50038.91;4954509;28;51118;-55
2021/12/29 01:22:20;;;;;;;;;4.00;4.00;;;;;-147.17;100.00;50019.22;4954753;28;52984;-56
2021/12/29 01:24:46;;;;;;;;;8.33;4.67;;;;;-147.17;100.00;50021.19;4952141;28;51209;-55
2021/12/29 01:27:13;;;;;;;;;5.33;4.33;;;;;-147.17;100.00;50033.00;4950729;28;51372;-56
2021/12/29 01:29:39;;;;;;;;;6.00;4.33;;;;;-147.17;100.00;50005.44;4953918;28;51273;-55
2021/12/29 01:32:04;;;;;;;;;7.00;5.00;;;;;-147.17;100.00;50001.50;4953181;28;52587;-55
2021/12/29 01:34:30;;;;;;;;;11.00;7.33;;;;;-147.17;100.00;49985.75;4952291;28;51094;-56
2021/12/29 01:36:55;;;;;;;;;6.33;6.00;;;;;-147.17;100.00;50029.06;4951686;28;51101;-56
2021/12/29 01:39:22;;;;;;;;;4.67;4.00;;;;;-147.17;100.00;50023.16;4952962;28;51202;-55
2021/12/29 01:41:50;;;;;;;;;7.67;6.67;;;;;-147.17;100.00;49993.63;4951003;28;51380;-56
2021/12/29 01:44:18;;;;;;;;;8.67;5.00;;;;;-147.17;100.00;50011.34;4954474;28;51485;-56
2021/12/29 01:46:45;;;;;;;;;8.00;6.00;;;;;-147.17;100.00;50003.47;4959878;28;51172;-55
2021/12/29 01:49:12;;;;;;;;;3.33;3.00;;;;;-147.17;100.00;49997.56;4960569;28;51569;-55
2021/12/29 01:51:47;;;;;;;;;4.00;4.00;;;;;-147.17;100.00;49973.94;4953325;28;51842;-55
2021/12/29 01:54:23;;;;;;;;;8.00;7.00;;;;;-147.17;100.00;50009.38;4965029;28;51239;-55
2021/12/29 01:56:51;;;;;;;;;8.00;6.00;;;;;-147.17;100.00;50001.50;4952717;28;51186;-55
2021/12/29 01:59:17;;;;;;;;;5.00;5.00;;;;;-147.17;100.00;49977.88;4965084;28;51270;-56
2021/12/29 02:01:43;;;;;;;;;7.33;6.67;;;;;-147.17;100.00;50005.44;4952606;28;51810;-54
2021/12/29 02:04:09;;;;;;;;;8.33;5.00;;;;;-147.17;100.00;49985.75;4950014;28;53495;-56
2021/12/29 02:06:34;;;;;;;;;6.67;5.00;;;;;-147.17;100.00;49987.72;4951270;28;51377;-55
2021/12/29 02:09:00;;;;;;;;;7.00;5.00;;;;;-147.17;100.00;49966.06;4952163;28;53152;-56
2021/12/29 02:11:29;;;;;;;;;6.67;5.00;;;;;-147.17;100.00;49979.84;4951130;28;51786;-56
2021/12/29 02:14:01;;;;;;;;;5.00;4.00;;;;;-147.17;100.00;49995.59;4949499;28;51419;-54
2021/12/29 02:16:27;;;;;;;;;8.67;6.67;;;;;-147.17;100.00;49940.47;4948976;28;52180;-55
2021/12/29 02:18:54;;;;;;;;;7.00;5.67;;;;;-147.17;100.00;49997.56;4950393;28;53368;-55
2021/12/29 02:21:22;;;;;;;;;6.33;5.33;;;;;-147.17;100.00;49999.53;4949854;28;52116;-56
2021/12/29 02:26:29;;;;;;;;;6.00;5.00;;;;;-147.17;100.00;50001.50;4952099;28;51147;-55
2021/12/29 02:28:56;;;;;;;;;5.00;4.67;;;;;-147.17;100.00;50015.28;4965879;28;51113;-55
2021/12/29 02:31:25;;;;;;;;;5.00;4.00;;;;;-147.17;100.00;50007.41;4949501;28;54421;-55
2021/12/29 02:33:52;;;;;;;;;6.67;5.00;;;;;-147.17;100.00;50009.38;4949831;28;51359;-55
2021/12/29 02:36:18;;;;;;;;;9.67;8.00;;;;;-147.17;100.00;49973.94;4951200;28;51502;-55
2021/12/29 02:38:48;;;;;;;;;3.33;3.00;;;;;-147.17;100.00;50001.50;4950160;28;51267;-54
2021/12/29 02:41:14;;;;;;;;;8.00;7.00;;;;;-147.17;100.00;49977.88;4951596;28;51200;-55
2021/12/29 02:43:40;;;;;;;;;5.00;4.33;;;;;-147.17;100.00;49932.59;4951019;28;53329;-56
2021/12/29 02:46:12;;;;;;;;;7.67;6.00;;;;;-147.17;100.00;49979.84;4954022;28;51100;-55
2021/12/29 02:48:48;;;;;;;;;5.00;4.00;;;;;-147.17;100.00;49985.75;4949976;28;51353;-55
2021/12/29 02:51:14;;;;;;;;;6.33;3.33;;;;;-147.17;100.00;49995.59;4952577;28;51724;-56
2021/12/29 02:53:39;;;;;;;;;5.00;3.00;;;;;-147.17;100.00;49983.78;4953117;28;51252;-55
2021/12/29 02:56:05;;;;;;;;;7.00;4.67;;;;;-147.17;100.00;49958.19;4949587;28;53103;-55
2021/12/29 02:58:34;;;;;;;;;5.00;3.33;;;;;-147.17;100.00;49973.94;4951261;28;51141;-55
2021/12/29 03:01:05;;;;;;;;;5.00;4.00;;;;;-147.17;100.00;49997.56;4952519;28;52397;-55
2021/12/29 03:03:33;;;;;;;;;5.00;5.00;;;;;-147.17;100.00;49971.97;4948887;28;52262;-55
2021/12/29 03:05:58;;;;;;;;;4.33;2.67;;;;;-147.17;100.00;49981.81;4951179;28;51170;-55
2021/12/29 03:08:25;;;;;;;;;2.67;2.67;;;;;-147.17;100.00;49993.63;4950265;28;51165;-55
2021/12/29 03:10:53;;;;;;;;;5.33;4.00;;;;;-147.17;100.00;49962.13;4950119;28;51332;-55
2021/12/29 03:13:20;;;;;;;;;4.00;2.67;;;;;-147.17;100.00;49973.94;4953071;28;53353;-55
2021/12/29 03:15:46;;;;;;;;;2.00;2.00;;;;;-147.17;100.00;50005.44;4949989;28;53366;-56
2021/12/29 03:18:11;;;;;;;;;4.33;4.00;;;;;-147.17;100.00;49997.56;4952389;28;53293;-55
2021/12/29 03:20:37;;;;;;;;;6.67;4.33;;;;;-147.17;100.00;49970.00;4954456;28;51389;-56
2021/12/29 03:23:02;;;;;;;;;5.00;2.00;;;;;-147.17;100.00;50029.06;4952499;28;51345;-54
2021/12/29 03:25:28;;;;;;;;;4.33;4.33;;;;;-147.17;100.00;49966.06;4951669;28;51331;-56
2021/12/29 03:27:59;;;;;;;;;3.67;3.00;;;;;-147.17;100.00;49973.94;4951566;28;53257;-55
2021/12/29 03:30:30;;;;;;;;;4.00;3.00;;;;;-147.17;100.00;49989.69;4953398;28;53046;-55
2021/12/29 03:33:05;;;;;;;;;2.00;2.00;;;;;-147.17;100.00;49938.50;4950996;28;51253;-55
2021/12/29 03:35:37;;;;;;;;;3.67;2.33;;;;;-147.17;100.00;49966.06;4953186;28;51651;-56
2021/12/29 03:38:07;;;;;;;;;4.33;3.33;;;;;-147.17;100.00;49958.19;4953923;28;51332;-56
2021/12/29 03:40:35;;;;;;;;;2.67;2.67;;;;;-147.17;100.00;49962.13;4954064;28;51251;-54
2021/12/29 03:43:01;;;;;;;;;5.00;4.00;;;;;-147.17;100.00;49973.94;4951759;28;51217;-54
2021/12/29 03:45:26;;;;;;;;;2.00;2.00;;;;;-147.17;100.00;49952.28;4952302;28;51301;-55
2021/12/29 03:47:52;;;;;;;;;5.00;4.00;;;;;-147.17;100.00;49958.19;4965439;28;51159;-54
2021/12/29 03:50:17;;;;;;;;;4.33;3.00;;;;;-147.17;100.00;49912.94;4953636;28;52835;-55
2021/12/29 03:52:43;;;;;;;;;4.00;3.33;;;;;-147.17;100.00;49932.59;4954329;28;51237;-54
2021/12/29 03:55:09;;;;;;;;;5.00;4.33;;;;;-147.17;100.00;49950.31;4952950;28;51237;-56
2021/12/29 03:57:35;;;;;;;;;1.67;1.67;;;;;-147.17;100.00;49899.16;4951780;28;51119;-56
2021/12/29 04:00:01;;;;;;;;;5.50;4.00;;;;;-147.17;100.00;49964.09;4954409;28;52831;-54
2021/12/29 04:02:26;;;;;;;;;3.00;2.00;;;;;-147.17;100.00;49914.91;4953054;28;53327;-56
2021/12/29 04:04:52;;;;;;;;;6.00;4.00;;;;;-147.17;100.00;49942.44;4952086;28;51179;-54
2021/12/29 04:07:18;;;;;;;;;2.67;2.67;;;;;-147.17;100.00;49956.22;4953816;28;51157;-55
2021/12/29 04:09:43;;;;;;;;;2.00;2.00;;;;;-147.17;100.00;49944.41;4951823;28;51943;-54
2021/12/29 04:12:09;;;;;;;;;6.00;3.33;;;;;-147.17;100.00;49942.44;4955007;28;51214;-55
2021/12/29 04:14:34;;;;;;;;;5.00;3.00;;;;;-147.17;100.00;49973.94;4953523;28;51289;-54
2021/12/29 04:17:08;;;;;;;;;3.00;2.33;;;;;-147.17;100.00;49930.63;4953107;28;52263;-55
2021/12/29 04:20:54;;;;;;;;;4.67;4.33;;;;;-147.17;100.00;49960.16;4954630;28;52653;-54
2021/12/29 04:22:25;;;;;;;;;4.00;2.00;;;;;-147.17;100.00;49934.56;4953667;28;51143;-54
2021/12/29 04:24:50;;;;;;;;;2.00;2.00;;;;;-147.17;100.00;49891.28;4965023;28;51090;-55
2021/12/29 04:27:16;;;;;;;;;4.00;3.00;;;;;-147.17;100.00;49926.69;4949484;28;51516;-55
2021/12/29 04:29:41;;;;;;;;;3.00;2.00;;;;;-147.17;100.00;49922.78;4953201;28;53532;-55
2021/12/29 04:32:07;;;;;;;;;2.67;2.67;;;;;-147.17;100.00;49910.97;4950143;28;51229;-56
2021/12/29 04:34:33;;;;;;;;;4.00;3.00;;;;;-147.17;100.00;49899.16;4954216;28;51180;-55
2021/12/29 04:36:58;;;;;;;;;3.33;2.33;;;;;-147.17;100.00;49859.78;4951550;28;51230;-56
2021/12/29 04:39:23;;;;;;;;;1.67;1.67;;;;;-147.17;100.00;49891.28;4951691;28;53198;-56
2021/12/29 04:41:49;;;;;;;;;3.00;2.33;;;;;-147.17;100.00;49938.50;4951864;28;51285;-55
2021/12/29 04:44:14;;;;;;;;;2.00;2.00;;;;;-147.17;100.00;49859.78;4953263;28;52341;-56
2021/12/29 04:46:44;;;;;;;;;2.00;1.00;;;;;-147.17;100.00;49857.81;4952635;28;51548;-59
2021/12/29 04:49:12;;;;;;;;;2.33;1.00;;;;;-147.17;100.00;49840.09;4952048;28;52176;-55
2021/12/29 04:51:47;;;;;;;;;4.00;3.00;;;;;-147.17;100.00;49844.03;4953464;28;53246;-55
2021/12/29 04:54:12;;;;;;;;;2.67;2.00;;;;;-147.17;100.00;49842.06;4952292;28;51389;-55
2021/12/29 04:56:38;;;;;;;;;3.00;3.00;;;;;-147.17;100.00;49851.91;4953503;28;52400;-56
2021/12/29 04:59:03;;;;;;;;;3.00;3.00;;;;;-147.17;100.00;49849.94;4953558;28;51227;-55
2021/12/29 05:01:29;;;;;;;;;3.67;3.00;;;;;-147.17;100.00;49849.94;4954829;28;51269;-54
2021/12/29 05:03:55;;;;;;;;;1.33;1.33;;;;;-147.17;100.00;49840.09;4953620;28;51207;-54
2021/12/29 05:09:05;;;;;;;;;1.00;1.00;;;;;-147.17;100.00;49840.09;4951380;28;51187;-55
2021/12/29 05:11:30;;;;;;;;;1.00;1.00;;;;;-147.17;100.00;49844.03;4952729;28;51310;-55
2021/12/29 05:13:55;;;;;;;;;1.00;1.00;;;;;-147.17;100.00;49816.47;4953402;28;51437;-55
2021/12/29 05:16:26;;;;;;;;;1.00;1.00;;;;;-147.17;100.00;49777.13;4951831;28;51170;-54
2021/12/29 05:18:51;;;;;;;;;2.00;2.00;;;;;-147.17;100.00;49816.47;4952940;28;51768;-55
2021/12/29 05:21:17;;;;;;;;;2.00;2.00;;;;;-147.17;100.00;49781.06;4956443;28;53547;-55
2021/12/29 05:23:42;;;;;;;;;2.00;1.33;;;;;-147.17;100.00;49784.97;4951364;28;51313;-55
2021/12/29 05:26:07;;;;;;;;;3.00;2.00;;;;;-147.17;100.00;49767.28;4952791;28;51276;-55
2021/12/29 05:28:33;;;;;;;;;1.67;1.00;;;;;-147.17;100.00;49812.53;4951409;28;51833;-55
2021/12/29 05:30:58;;;;;;;;;2.67;2.00;;;;;-147.17;100.00;49790.88;4952151;28;52818;-56
2021/12/29 05:33:24;;;;;;;;;3.00;3.00;;;;;-147.17;100.00;49794.81;4952903;28;51359;-55
2021/12/29 05:35:50;;;;;;;;;3.00;3.00;;;;;-147.17;100.00;49786.94;4952330;28;51504;-56
2021/12/29 05:38:15;;;;;;;;;3.00;2.67;;;;;-147.17;100.00;49777.13;4951466;28;51907;-55
2021/12/29 05:40:40;;;;;;;;;3.00;3.00;;;;;-147.17;100.00;49763.34;4953039;28;51137;-55
2021/12/29 05:43:06;;;;;;;;;1.67;1.67;;;;;-147.17;100.00;49757.44;4951808;28;51315;-55
2021/12/29 05:45:32;;;;;;;;;2.00;2.00;;;;;-147.17;100.00;49753.50;4950033;28;51143;-55
2021/12/29 05:47:57;;;;;;;;;2.33;2.33;;;;;-147.17;100.00;49765.31;4950570;28;51384;-56
2021/12/29 05:50:26;;;;;;;;;4.33;3.33;;;;;-147.17;100.00;49781.06;4950910;28;51141;-55
2021/12/29 05:52:53;;;;;;;;;3.00;3.00;;;;;-147.17;100.00;49784.97;4951900;28;51367;-55
2021/12/29 05:55:18;;;;;;;;;3.00;3.00;;;;;-147.17;100.00;49753.50;4952181;28;51298;-55
2021/12/29 05:57:44;;;;;;;;;2.67;2.00;;;;;-147.17;100.00;49755.47;4952729;28;52298;-55
2021/12/29 06:00:13;;;;;;;;;4.00;4.00;;;;;-147.17;100.00;49755.47;4953585;28;51423;-54
2021/12/29 06:02:38;;;;;;;;;4.67;4.33;;;;;-147.17;100.00;49757.44;4951183;28;51198;-55
2021/12/29 06:05:06;;;;;;;;;5.00;5.00;;;;;-147.17;100.00;49747.59;4953990;28;51413;-54
2021/12/29 06:07:32;;;;;;;;;7.33;5.00;;;;;-147.17;100.00;49737.75;4964153;28;52480;-55
2021/12/29 06:09:57;;;;;;;;;7.00;5.33;;;;;-147.17;100.00;49737.75;4950866;28;51567;-55
2021/12/29 06:12:23;;;;;;;;;4.00;3.67;;;;;-147.17;100.00;49725.94;4949797;28;53475;-55
2021/12/29 06:14:49;;;;;;;;;6.33;4.67;;;;;-147.17;100.00;49737.75;4949190;28;51381;-54
2021/12/29 06:17:15;;;;;;;;;5.33;5.00;;;;;-147.17;100.00;49733.81;4951289;28;51985;-54
2021/12/29 06:19:40;;;;;;;;;8.00;8.00;;;;;-147.17;100.00;49729.88;4950025;28;51281;-55
2021/12/29 06:22:09;;;;;;;;;5.00;4.33;;;;;-147.17;100.00;49745.63;4953057;28;51257;-55
2021/12/29 06:24:35;;;;;;;;;6.33;5.33;;;;;-147.17;100.00;49737.75;4965924;28;51146;-53
2021/12/29 06:27:00;;;;;;;;;7.00;6.00;;;;;-147.17;100.00;49720.03;4951264;28;53119;-55
2021/12/29 06:29:25;;;;;;;;;5.33;5.33;;;;;-147.17;100.00;49729.88;4951525;28;51055;-55
2021/12/29 06:31:51;;;;;;;;;7.00;7.00;;;;;-147.17;100.00;49733.81;4949128;28;53185;-55
2021/12/29 06:34:17;;;;;;;;;6.00;6.00;;;;;-147.17;100.00;49700.34;4949131;28;51190;-55
2021/12/29 06:36:42;;;;;;;;;6.67;6.67;;;;;-147.17;100.00;49708.22;4952737;28;52576;-55
2021/12/29 06:39:08;;;;;;;;;5.00;5.00;;;;;-147.17;100.00;49720.03;4949351;28;51276;-54
2021/12/29 06:41:34;;;;;;;;;7.00;6.33;;;;;-147.17;100.00;49662.94;4951308;28;53018;-56
2021/12/29 06:43:59;;;;;;;;;7.00;6.33;;;;;-147.17;100.00;49714.13;4950588;28;51134;-56
2021/12/29 06:46:24;;;;;;;;;7.33;7.33;;;;;-147.17;100.00;49678.69;4948748;28;52650;-55
2021/12/29 06:48:50;;;;;;;;;6.00;5.00;;;;;-147.17;100.00;49710.19;4953623;28;51154;-55
2021/12/29 06:51:15;;;;;;;;;4.00;4.00;;;;;-147.17;100.00;49718.06;4962854;28;51229;-55
2021/12/29 06:53:40;;;;;;;;;6.00;5.50;;;;;-147.17;100.00;49741.69;4951070;28;51605;-55
2021/12/29 06:56:06;;;;;;;;;4.67;4.33;;;;;-147.17;100.00;49755.47;4949580;28;51130;-54
2021/12/29 06:58:33;;;;;;;;;5.33;5.33;;;;;-147.17;100.00;49720.03;4950836;28;51309;-56
2021/12/29 07:00:58;;;;;;;;;4.33;4.33;;;;;-147.17;100.00;49702.31;4950410;28;51252;-55
2021/12/29 07:03:25;;;;;;;;;6.67;5.67;;;;;-147.17;100.00;49706.25;4957387;28;51637;-57
2021/12/29 07:05:52;;;;;;;;;5.00;3.67;;;;;-147.17;100.00;49694.44;4952232;28;52802;-55
2021/12/29 07:08:18;;;;;;;;;5.00;4.33;;;;;-147.17;100.00;49729.88;4967801;28;51300;-55
2021/12/29 07:10:43;;;;;;;;;6.00;5.00;;;;;-147.17;100.00;49718.06;4955198;28;53483;-52
2021/12/29 07:13:09;;;;;;;;;7.33;6.67;;;;;-147.17;100.00;49722.00;4953565;28;51385;-54
2021/12/29 07:15:34;;;;;;;;;5.67;5.67;;;;;-147.17;100.00;49733.81;4953318;28;51217;-54
2021/12/29 07:18:01;;;;;;;;;5.00;5.00;;;;;-147.17;100.00;49690.50;4952310;28;51177;-55
2021/12/29 07:20:26;;;;;;;;;5.00;5.00;;;;;-147.17;100.00;49694.44;4955951;28;52878;-56
2021/12/29 07:22:51;;;;;;;;;6.00;6.00;;;;;-147.17;100.00;49723.97;4956772;28;51163;-55
2021/12/29 07:25:17;;;;;;;;;6.00;6.00;;;;;-147.17;100.00;49702.31;4952737;28;51339;-55
2021/12/29 07:27:42;;;;;;;;;8.33;7.00;;;;;-147.17;100.00;49686.56;4955095;28;53321;-54
2021/12/29 07:30:08;;;;;;;;;5.00;5.00;;;;;-147.17;100.00;49702.31;4954945;28;51346;-55
2021/12/29 07:32:33;;;;;;;;;9.00;7.33;;;;;-147.17;100.00;49698.38;4955785;28;51268;-54
2021/12/29 07:34:59;;;;;;;;;10.00;9.67;;;;;-147.17;100.00;49731.84;4952355;28;52927;-54
2021/12/29 07:37:24;;;;;;;;;7.67;7.00;;;;;-147.17;100.00;49712.16;4952643;28;51219;-54
2021/12/29 07:39:49;;;;;;;;;6.00;6.00;;;;;-147.17;100.00;49688.53;4954736;28;53280;-56
2021/12/29 07:42:15;;;;;;;;;9.33;8.33;;;;;-147.17;100.00;49686.56;4954553;28;51138;-55
2021/12/29 07:44:43;;;;;;;;;10.00;8.67;;;;;-147.17;100.00;49690.50;4953555;28;55058;-56
2021/12/29 07:47:10;;;;;;;;;10.00;6.00;;;;;-147.17;100.00;49716.09;4951900;28;51469;-56
2021/12/29 07:49:35;;;;;;;;;7.00;6.33;;;;;-147.17;100.00;49657.06;4952369;28;51300;-55
2021/12/29 07:52:01;;;;;;;;;7.67;7.67;;;;;-147.17;100.00;49722.00;4970574;28;53429;-55
2021/12/29 07:54:26;;;;;;;;;6.00;6.00;;;;;-147.17;100.00;49682.63;4967859;28;52102;-56
2021/12/29 07:56:52;;;;;;;;;8.67;8.33;;;;;-147.17;100.00;49712.16;4953152;28;51320;-56
2021/12/29 07:59:21;;;;;;;;;9.00;7.00;;;;;-147.17;100.00;49692.47;4954517;28;51269;-56
2021/12/29 08:01:48;;;;;;;;;11.33;10.67;;;;;-147.17;100.00;49672.78;4952648;28;51527;-56
2021/12/29 08:04:15;;;;;;;;;11.00;10.33;;;;;-147.17;100.00;49698.38;4965363;28;52086;-56
2021/12/29 08:06:40;;;;;;;;;8.67;8.00;;;;;-147.17;100.00;49706.25;4954863;28;51363;-55
2021/12/29 08:09:12;;;;;;;;;12.33;12.00;;;;;-147.17;100.00;49702.31;4960693;28;51362;-55
2021/12/29 08:11:39;;;;;;;;;9.67;9.67;;;;;-147.17;100.00;49682.63;4955342;28;51228;-52
2021/12/29 08:14:06;;;;;;;;;7.67;7.67;;;;;-147.17;100.00;49686.56;4954159;28;51871;-55
2021/12/29 08:16:31;;;;;;;;;10.00;8.33;;;;;-147.17;100.00;49704.28;4953702;28;51204;-53
2021/12/29 08:21:33;;;;;;;;;7.00;7.00;;;;;-147.17;100.00;49682.63;5400349;22;51366;-54
2021/12/29 08:23:59;;;;;;;;;9.33;8.67;;;;;-147.17;100.00;49670.81;4929698;28;51947;-52
2021/12/29 08:26:24;;;;;;;;;7.33;6.33;;;;;-147.17;100.00;49690.50;4921366;28;51373;-55
2021/12/29 08:28:50;;;;;;;;;9.33;8.33;;;;;-147.17;100.00;49682.63;4929815;28;51591;-53
2021/12/29 08:31:16;;;;;;;;;14.67;12.33;;;;;-147.17;100.00;49682.63;4920101;28;51440;-54
2021/12/29 08:33:41;;;;;;;;;11.00;10.67;;;;;-147.17;100.00;49643.28;4930335;28;53130;-52
2021/12/29 08:36:07;;;;;;;;;9.00;9.00;;;;;-147.17;100.00;49625.56;4926977;28;51171;-56
2021/12/29 08:38:34;;;;;;;;;9.33;9.33;;;;;-147.17;100.00;49662.94;4928297;28;53313;-53
2021/12/29 08:41:00;;;;;;;;;10.33;8.67;;;;;-147.17;100.00;49625.56;4920147;28;51743;-53
2021/12/29 08:43:25;;;;;;;;;8.33;8.33;;;;;-147.17;100.00;49633.44;4925280;28;52347;-53
2021/12/29 08:45:51;;;;;;;;;9.67;8.33;;;;;-147.17;100.00;49666.88;4925973;28;53167;-56
2021/12/29 08:48:16;;;;;;;;;11.00;10.00;;;;;-147.17;100.00;49653.13;4928790;28;51106;-51
2021/12/29 08:50:42;;;;;;;;;9.67;9.67;;;;;-147.17;100.00;49659.03;4926000;28;53327;-56
2021/12/29 08:53:09;;;;;;;;;12.00;9.00;;;;;-147.17;100.00;49668.84;4924364;28;51280;-55
2021/12/29 08:58:10;;;;;;;;;11.33;10.67;;;;;-147.17;100.00;49651.16;4956899;23;54001;-58
2021/12/29 09:00:35;;;;;;;;;11.00;11.00;;;;;-147.17;100.00;49670.81;4871300;28;51627;-56
2021/12/29 09:03:00;;;;;;;;;10.33;8.00;;;;;-147.17;100.00;49647.22;4874501;28;51437;-55
2021/12/29 09:05:26;;;;;;;;;9.33;8.00;;;;;-147.17;100.00;49662.94;4866774;28;51321;-58
2021/12/29 09:07:51;;;;;;;;;10.00;8.33;;;;;-147.17;100.00;49605.88;4869789;28;51296;-55
2021/12/29 09:10:19;;;;;;;;;10.67;10.00;;;;;-147.17;100.00;49627.53;4871212;28;51268;-57
2021/12/29 09:12:47;;;;;;;;;10.00;10.00;;;;;-147.17;100.00;49607.84;4873054;28;51906;-56
2021/12/29 09:15:13;;;;;;;;;8.00;8.00;;;;;-147.17;100.00;49627.53;4872150;28;51229;-57
2021/12/29 09:17:39;;;;;;;;;10.00;8.00;;;;;-147.17;100.00;49631.47;4870785;28;51358;-55
2021/12/29 09:20:06;;;;;;;;;12.67;10.67;;;;;-147.17;100.00;49596.03;4872255;28;51206;-56
2021/12/29 09:22:31;;;;;;;;;7.33;6.67;;;;;-147.17;100.00;49615.72;4870685;29;54023;-55
2021/12/29 09:24:56;;;;;;;;;10.33;10.33;;;;;-147.17;100.00;49607.84;4872167;28;51828;-56
2021/12/29 09:27:22;;;;;;;;;12.00;9.33;;;;;-147.17;100.00;49605.88;4867405;28;53597;-57
2021/12/29 09:29:47;;;;;;;;;5.00;4.33;;;;;-147.17;100.00;49592.09;4870356;28;51338;-57
2021/12/29 09:32:13;;;;;;;;;6.33;6.00;;;;;-147.17;100.00;49601.94;4870874;28;52537;-57
2021/12/29 09:34:38;;;;;;;;;7.67;6.67;;;;;-147.17;100.00;49599.97;4871796;28;51520;-57
2021/12/29 09:37:07;;;;;;;;;5.67;5.67;;;;;-147.17;100.00;49607.84;4871185;28;51217;-57
2021/12/29 09:39:33;;;;;;;;;8.00;8.00;;;;;-147.17;100.00;49599.97;4873591;29;51275;-55
2021/12/29 09:41:59;;;;;;;;;6.00;6.00;;;;;-147.17;100.00;49598.00;4871633;28;53361;-56
2021/12/29 09:44:24;;;;;;;;;7.00;6.67;;;;;-147.17;100.00;49615.72;4871477;28;51148;-57
2021/12/29 09:46:51;;;;;;;;;11.33;8.33;;;;;-147.17;100.00;49607.84;4871453;28;51136;-57
2021/12/29 09:49:17;;;;;;;;;8.67;8.00;;;;;-147.17;100.00;49596.03;4871287;28;52500;-57
2021/12/29 09:51:42;;;;;;;;;7.00;6.00;;;;;-147.17;100.00;49596.03;4873347;29;53390;-57
2021/12/29 09:54:08;;;;;;;;;8.00;8.00;;;;;-147.17;100.00;49588.16;4870919;29;51281;-56
2021/12/29 09:56:33;;;;;;;;;8.67;8.00;;;;;-147.17;100.00;49580.28;4871683;28;53117;-57
2021/12/29 09:58:59;;;;;;;;;7.00;6.00;;;;;-147.17;100.00;49554.69;4873063;28;53130;-57
2021/12/29 10:01:25;;;;;;;;;6.67;6.67;;;;;-147.17;100.00;49568.47;4869305;28;51192;-58
2021/12/29 10:03:50;;;;;;;;;7.00;6.00;;;;;-147.17;100.00;49533.06;4871457;29;51361;-57
2021/12/29 10:06:16;;;;;;;;;9.00;8.67;;;;;-147.17;100.00;49568.47;4871941;28;51105;-57
2021/12/29 10:08:44;;;;;;;;;8.00;7.33;;;;;-147.17;100.00;49552.72;4871586;28;51180;-55
2021/12/29 10:11:12;;;;;;;;;6.33;6.33;;;;;-147.17;100.00;49548.81;4873175;28;51208;-56
2021/12/29 10:13:41;;;;;;;;;7.00;7.00;;;;;-147.17;100.00;49556.66;4871522;28;51230;-56
2021/12/29 10:16:09;;;;;;;;;8.00;8.00;;;;;-147.17;100.00;49566.50;4871796;28;51257;-57
2021/12/29 10:18:37;;;;;;;;;6.00;6.00;;;;;-147.17;100.00;49527.16;4871820;29;51807;-56
2021/12/29 10:21:12;;;;;;;;;11.33;10.67;;;;;-147.17;100.00;49568.47;4871298;28;51289;-56
2021/12/29 10:23:46;;;;;;;;;9.00;8.33;;;;;-147.17;100.00;49537.00;4871291;29;51156;-57
2021/12/29 10:26:21;;;;;;;;;9.33;8.33;;;;;-147.17;100.00;49515.34;4871698;28;51418;-56
2021/12/29 10:28:50;;;;;;;;;8.00;7.00;;;;;-147.17;100.00;49529.13;4871390;28;51406;-57
2021/12/29 10:31:20;;;;;;;;;7.33;6.33;;;;;-147.17;100.00;49529.13;4871337;29;51223;-57
2021/12/29 10:33:53;;;;;;;;;11.33;9.33;;;;;-147.17;100.00;49538.97;4871079;28;51695;-57
2021/12/29 10:36:25;;;;;;;;;7.00;7.00;;;;;-147.17;100.00;49505.50;4871388;28;51096;-56
2021/12/29 10:39:13;;;;;;;;;8.00;8.00;;;;;-147.17;100.00;49537.00;4872945;29;51488;-57
2021/12/29 10:41:46;;;;;;;;;7.00;7.00;;;;;-147.17;100.00;49499.59;4874991;29;51079;-57
2021/12/29 10:44:13;;;;;;;;;10.33;10.33;;;;;-147.17;100.00;49521.25;4883401;29;51330;-57
2021/12/29 10:46:39;;;;;;;;;13.67;12.67;;;;;-147.17;100.00;49513.38;4874905;28;51249;-57
2021/12/29 10:49:08;;;;;;;;;4.67;4.00;;;;;-147.17;100.00;49542.91;4873933;28;51286;-57
2021/12/29 10:51:43;;;;;;;;;11.67;9.33;;;;;-147.17;100.00;49475.97;4875586;29;51844;-57
2021/12/29 10:54:18;;;;;;;;;9.67;9.00;;;;;-147.17;100.00;49474.00;4874347;28;51371;-57
2021/12/29 10:56:57;;;;;;;;;6.67;6.67;;;;;-147.17;100.00;49468.09;4873513;28;51471;-56
2021/12/29 10:59:28;;;;;;;;;8.67;7.67;;;;;-147.17;100.00;49454.31;4873680;28;51368;-56
2021/12/29 11:01:53;;;;;;;;;5.00;4.00;;;;;-147.17;100.00;49418.91;4874360;28;53111;-59
2021/12/29 11:04:21;;;;;;;;;9.00;7.00;;;;;-147.17;100.00;49448.44;4887925;28;51374;-56
2021/12/29 11:06:49;;;;;;;;;11.33;9.67;;;;;-147.17;100.00;49440.56;4874089;29;51331;-56
2021/12/29 11:09:22;;;;;;;;;6.33;6.00;;;;;-147.17;100.00;49411.03;4873631;28;52723;-56
2021/12/29 11:11:47;;;;;;;;;2.00;2.00;;;;;-147.17;100.00;49420.88;4874070;28;51309;-56
2021/12/29 11:14:21;;;;;;;;;7.00;6.00;;;;;-147.17;100.00;49371.66;4874043;28;51161;-57
2021/12/29 11:16:58;;;;;;;;;4.00;4.00;;;;;-147.17;100.00;49332.31;4872838;28;51164;-58